createdAt,value
2017-05-10T00:00:16.108Z,997.79
2017-05-10T00:01:26.445Z,997.77
2017-05-10T00:02:36.770Z,997.79
2017-05-10T00:03:47.118Z,997.76
2017-05-10T00:04:57.475Z,997.75
2017-05-10T00:06:07.193Z,997.8
2017-05-10T00:07:17.236Z,997.76
2017-05-10T00:08:27.574Z,997.75
2017-05-10T00:09:37.937Z,997.74
2017-05-10T00:10:47.964Z,997.77
2017-05-10T00:11:58.327Z,997.77
2017-05-10T00:13:08.663Z,997.75
2017-05-10T00:14:18.690Z,997.77
2017-05-10T00:15:29.041Z,997.74
2017-05-10T00:16:39.426Z,997.74
2017-05-10T00:17:49.778Z,997.76
2017-05-10T00:19:00.120Z,997.74
2017-05-10T00:20:10.157Z,997.72
2017-05-10T00:21:20.500Z,997.73
2017-05-10T00:22:30.852Z,997.73
2017-05-10T00:23:41.194Z,997.75
2017-05-10T00:24:51.549Z,997.74
2017-05-10T00:26:01.266Z,997.73
2017-05-10T00:27:10.975Z,997.75
2017-05-10T00:28:21.310Z,997.75
2017-05-10T00:29:31.653Z,997.7
2017-05-10T00:30:42.008Z,997.72
2017-05-10T00:31:52.350Z,997.71
2017-05-10T00:33:02.683Z,997.69
2017-05-10T00:34:13.016Z,997.72
2017-05-10T00:35:23.045Z,997.72
2017-05-10T00:36:33.075Z,997.68
2017-05-10T00:37:43.425Z,997.73
2017-05-10T00:38:53.776Z,997.68
2017-05-10T00:40:04.121Z,997.67
2017-05-10T00:41:14.157Z,997.67
2017-05-10T00:42:24.495Z,997.62
2017-05-10T00:43:34.550Z,997.63
2017-05-10T00:44:44.905Z,997.63
2017-05-10T00:45:55.309Z,997.57
2017-05-10T00:47:05.667Z,997.61
2017-05-10T00:48:16.008Z,997.58
2017-05-10T00:49:26.360Z,997.51
2017-05-10T00:50:36.698Z,997.56
2017-05-10T00:51:47.039Z,997.52
2017-05-10T00:52:57.374Z,997.49
2017-05-10T00:54:07.698Z,997.51
2017-05-10T00:55:18.054Z,997.45
2017-05-10T00:56:28.390Z,997.48
2017-05-10T00:57:38.717Z,997.46
2017-05-10T00:58:49.071Z,997.47
2017-05-10T00:59:59.421Z,997.43
2017-05-10T01:01:09.443Z,997.33
2017-05-10T01:02:19.473Z,997.32
2017-05-10T01:03:29.795Z,997.3
2017-05-10T01:04:40.149Z,997.3
2017-05-10T01:05:50.437Z,997.26
2017-05-10T01:07:00.395Z,997.19
2017-05-10T01:08:10.358Z,997.19
2017-05-10T01:09:20.628Z,997.23
2017-05-10T01:10:30.897Z,997.23
2017-05-10T01:11:41.185Z,997.22
2017-05-10T01:12:51.450Z,997.19
2017-05-10T01:14:01.736Z,997.18
2017-05-10T01:15:11.399Z,997.19
2017-05-10T01:16:21.366Z,997.16
2017-05-10T01:17:31.646Z,997.2
2017-05-10T01:18:41.925Z,997.19
2017-05-10T01:19:51.906Z,997.23
2017-05-10T01:21:01.870Z,997.19
2017-05-10T01:22:11.834Z,997.19
2017-05-10T01:23:21.859Z,997.2
2017-05-10T01:24:31.885Z,997.2
2017-05-10T01:25:41.909Z,997.2
2017-05-10T01:26:52.266Z,997.19
2017-05-10T01:28:02.618Z,997.18
2017-05-10T01:29:12.959Z,997.2
2017-05-10T01:30:23.297Z,997.21
2017-05-10T01:31:33.636Z,997.18
2017-05-10T01:32:44.213Z,997.21
2017-05-10T01:33:53.929Z,997.18
2017-05-10T01:35:04.267Z,997.19
2017-05-10T01:36:14.613Z,997.12
2017-05-10T01:37:24.956Z,997.16
2017-05-10T01:38:35.298Z,997.21
2017-05-10T01:39:45.646Z,997.15
2017-05-10T01:40:55.989Z,997.22
2017-05-10T01:42:06.025Z,997.2
2017-05-10T01:43:16.374Z,997.21
2017-05-10T01:44:26.721Z,997.2
2017-05-10T01:45:37.046Z,997.22
2017-05-10T01:46:47.105Z,997.2
2017-05-10T01:47:57.132Z,997.24
2017-05-10T01:49:06.852Z,997.27
2017-05-10T01:50:17.195Z,997.29
2017-05-10T01:51:27.537Z,997.22
2017-05-10T01:52:37.869Z,997.23
2017-05-10T01:53:48.211Z,997.25
2017-05-10T01:54:58.553Z,997.27
2017-05-10T01:56:08.880Z,997.24
2017-05-10T01:57:19.229Z,997.21
2017-05-10T01:58:29.267Z,997.21
2017-05-10T01:59:39.614Z,997.2
2017-05-10T02:00:49.959Z,997.15
2017-05-10T02:01:59.992Z,997.15
2017-05-10T02:03:10.331Z,997.09
2017-05-10T02:04:20.354Z,997.14
2017-05-10T02:05:30.406Z,997.09
2017-05-10T02:06:40.735Z,997.13
2017-05-10T02:07:51.070Z,997.06
2017-05-10T02:09:01.082Z,997.07
2017-05-10T02:10:11.421Z,997.03
2017-05-10T02:11:21.761Z,997.06
2017-05-10T02:12:32.107Z,997.05
2017-05-10T02:13:42.455Z,997.08
2017-05-10T02:14:52.836Z,997.03
2017-05-10T02:16:02.881Z,997.06
2017-05-10T02:17:13.233Z,997.07
2017-05-10T02:18:23.271Z,997.04
2017-05-10T02:19:33.314Z,997.06
2017-05-10T02:20:43.335Z,996.97
2017-05-10T02:21:53.363Z,996.93
2017-05-10T02:23:03.402Z,996.96
2017-05-10T02:24:13.743Z,996.93
2017-05-10T02:25:24.091Z,996.92
2017-05-10T02:26:34.468Z,996.91
2017-05-10T02:27:44.804Z,996.89
2017-05-10T02:28:54.858Z,996.91
2017-05-10T02:30:05.199Z,996.9
2017-05-10T02:31:15.537Z,996.9
2017-05-10T02:32:25.871Z,996.88
2017-05-10T02:33:35.604Z,996.89
2017-05-10T02:34:45.636Z,996.88
2017-05-10T02:35:55.671Z,996.82
2017-05-10T02:37:05.751Z,996.79
2017-05-10T02:38:16.101Z,996.86
2017-05-10T02:39:26.437Z,996.82
2017-05-10T02:40:36.788Z,996.79
2017-05-10T02:41:46.827Z,996.83
2017-05-10T02:42:57.215Z,996.83
2017-05-10T02:44:07.567Z,996.82
2017-05-10T02:45:17.891Z,996.82
2017-05-10T02:46:27.602Z,996.8
2017-05-10T02:47:37.953Z,996.78
2017-05-10T02:48:47.971Z,996.81
2017-05-10T02:49:58.319Z,996.85
2017-05-10T02:51:08.351Z,996.87
2017-05-10T02:52:18.381Z,996.85
2017-05-10T02:53:28.718Z,996.83
2017-05-10T02:54:38.800Z,996.81
2017-05-10T02:55:48.541Z,996.83
2017-05-10T02:56:58.898Z,996.85
2017-05-10T02:58:08.933Z,996.82
2017-05-10T02:59:19.275Z,996.81
2017-05-10T03:00:29.311Z,996.82
2017-05-10T03:01:39.338Z,996.85
2017-05-10T03:32:57.145Z,996.77
2017-05-10T03:34:07.473Z,996.8
2017-05-10T03:35:17.493Z,996.77
2017-05-10T03:36:27.514Z,996.78
2017-05-10T03:37:37.862Z,996.78
2017-05-10T03:38:48.204Z,996.81
2017-05-10T03:39:58.533Z,996.77
2017-05-10T03:41:08.559Z,996.79
2017-05-10T03:42:18.912Z,996.79
2017-05-10T03:43:29.241Z,996.82
2017-05-10T03:44:39.621Z,996.85
2017-05-10T03:45:49.956Z,996.85
2017-05-10T03:47:00.311Z,996.86
2017-05-10T03:48:10.641Z,996.84
2017-05-10T03:49:20.982Z,996.85
2017-05-10T03:50:31.342Z,996.88
2017-05-10T03:51:41.708Z,996.85
2017-05-10T03:52:51.735Z,996.86
2017-05-10T03:54:01.450Z,996.88
2017-05-10T03:55:11.797Z,996.89
2017-05-10T03:56:21.511Z,996.89
2017-05-10T03:57:31.532Z,996.88
2017-05-10T03:58:41.559Z,996.87
2017-05-10T03:59:51.587Z,996.88
2017-05-10T04:01:01.926Z,996.9
2017-05-10T04:02:12.260Z,996.9
2017-05-10T04:03:22.285Z,996.86
2017-05-10T04:04:32.618Z,996.83
2017-05-10T04:05:42.971Z,996.83
2017-05-10T04:06:53.322Z,996.81
2017-05-10T04:08:03.688Z,996.85
2017-05-10T04:09:14.023Z,996.81
2017-05-10T04:10:24.051Z,996.85
2017-05-10T04:11:34.405Z,996.81
2017-05-10T04:12:44.762Z,996.85
2017-05-10T04:13:55.102Z,996.78
2017-05-10T04:15:05.451Z,996.82
2017-05-10T04:16:15.787Z,996.82
2017-05-10T04:17:25.815Z,996.79
2017-05-10T04:18:35.844Z,996.84
2017-05-10T04:19:46.194Z,996.96
2017-05-10T04:20:56.546Z,996.95
2017-05-10T04:22:06.888Z,997.1
2017-05-10T04:23:16.600Z,997.03
2017-05-10T04:24:26.633Z,996.91
2017-05-10T04:25:36.968Z,996.86
2017-05-10T04:26:47.002Z,996.87
2017-05-10T04:27:57.031Z,996.81
2017-05-10T04:29:07.086Z,996.79
2017-05-10T04:30:17.430Z,996.8
2017-05-10T04:31:27.763Z,996.75
2017-05-10T04:32:38.146Z,996.75
2017-05-10T04:33:48.182Z,996.75
2017-05-10T04:34:58.214Z,996.77
2017-05-10T04:36:08.237Z,996.86
2017-05-10T04:37:18.330Z,996.82
2017-05-10T04:38:28.697Z,996.78
2017-05-10T04:39:39.045Z,996.73
2017-05-10T04:40:48.781Z,996.76
2017-05-10T04:41:58.838Z,996.82
2017-05-10T04:43:09.204Z,996.83
2017-05-10T04:44:19.612Z,997.01
2017-05-10T04:45:30.011Z,997.03
2017-05-10T04:46:40.401Z,997.02
2017-05-10T04:47:50.755Z,997.07
2017-05-10T04:49:01.108Z,997.05
2017-05-10T04:50:11.465Z,997.01
2017-05-10T04:51:21.810Z,996.98
2017-05-10T04:52:32.154Z,997.01
2017-05-10T04:53:42.485Z,997.04
2017-05-10T04:54:52.547Z,997.01
2017-05-10T04:56:02.603Z,996.99
2017-05-10T04:57:12.960Z,996.93
2017-05-10T04:58:22.996Z,996.93
2017-05-10T04:59:33.326Z,996.9
2017-05-10T05:00:43.126Z,996.85
2017-05-10T05:01:53.468Z,996.87
2017-05-10T05:03:03.187Z,996.92
2017-05-10T05:04:13.235Z,996.95
2017-05-10T05:05:23.581Z,997.02
2017-05-10T05:06:33.623Z,996.99
2017-05-10T05:07:43.986Z,997.02
2017-05-10T05:08:53.724Z,997.03
2017-05-10T05:10:03.755Z,997.05
2017-05-10T05:11:14.112Z,997.05
2017-05-10T05:12:24.461Z,997.1
2017-05-10T05:13:34.810Z,997.15
2017-05-10T05:14:45.171Z,997.17
2017-05-10T05:15:55.513Z,997.19
2017-05-10T05:17:05.882Z,997.23
2017-05-10T05:18:16.276Z,997.24
2017-05-10T05:19:26.622Z,997.23
2017-05-10T05:20:36.971Z,997.26
2017-05-10T05:21:47.014Z,997.3
2017-05-10T05:22:57.361Z,997.33
2017-05-10T05:24:07.402Z,997.33
2017-05-10T05:25:17.762Z,997.37
2017-05-10T05:26:27.832Z,997.31
2017-05-10T05:27:37.876Z,997.37
2017-05-10T05:28:47.925Z,997.38
2017-05-10T05:29:58.276Z,997.34
2017-05-10T05:31:08.619Z,997.3
2017-05-10T05:32:18.971Z,997.3
2017-05-10T05:33:29.016Z,997.25
2017-05-10T05:34:39.073Z,997.23
2017-05-10T05:35:49.158Z,997.26
2017-05-10T05:36:59.515Z,997.16
2017-05-10T05:38:09.856Z,997.07
2017-05-10T05:39:19.885Z,997.07
2017-05-10T05:40:30.242Z,997.06
2017-05-10T05:41:40.266Z,997.06
2017-05-10T05:42:50.304Z,997.07
2017-05-10T05:44:00.040Z,997.06
2017-05-10T05:45:10.095Z,997.07
2017-05-10T05:46:20.458Z,997.07
2017-05-10T05:47:30.186Z,997.08
2017-05-10T05:48:40.530Z,997.1
2017-05-10T05:49:50.897Z,997.12
2017-05-10T05:51:00.940Z,997.13
2017-05-10T05:52:10.984Z,997.12
2017-05-10T05:53:21.333Z,997.16
2017-05-10T05:54:31.372Z,997.12
2017-05-10T05:55:41.410Z,997.3
2017-05-10T05:56:51.757Z,997.19
2017-05-10T05:58:02.150Z,996.97
2017-05-10T05:59:12.491Z,996.81
2017-05-10T06:00:22.830Z,996.78
2017-05-10T06:01:33.182Z,996.75
2017-05-10T06:02:43.519Z,996.73
2017-05-10T06:03:53.860Z,996.73
2017-05-10T06:05:04.225Z,996.75
2017-05-10T06:06:14.571Z,996.7
2017-05-10T06:07:24.918Z,996.71
2017-05-10T06:08:35.320Z,996.73
2017-05-10T06:09:45.669Z,996.79
2017-05-10T06:10:56.022Z,996.78
2017-05-10T06:12:06.052Z,996.73
2017-05-10T06:13:16.108Z,996.76
2017-05-10T06:14:25.845Z,996.8
2017-05-10T06:15:35.894Z,996.78
2017-05-10T06:16:46.238Z,996.76
2017-05-10T06:17:56.599Z,996.83
2017-05-10T06:19:06.958Z,996.79
2017-05-10T06:20:17.304Z,996.78
2017-05-10T06:21:27.739Z,996.8
2017-05-10T06:22:38.092Z,996.74
2017-05-10T06:23:48.481Z,996.76
2017-05-10T06:24:58.846Z,996.72
2017-05-10T06:26:09.198Z,996.7
2017-05-10T06:27:19.580Z,996.74
2017-05-10T06:28:29.926Z,996.74
2017-05-10T06:29:40.273Z,996.71
2017-05-10T06:30:50.618Z,996.72
2017-05-10T06:32:00.649Z,996.66
2017-05-10T06:33:10.367Z,996.63
2017-05-10T06:34:20.399Z,996.65
2017-05-10T06:35:30.434Z,996.65
2017-05-10T06:36:40.147Z,996.65
2017-05-10T06:37:50.508Z,996.68
2017-05-10T06:39:00.865Z,996.69
2017-05-10T06:40:10.949Z,996.7
2017-05-10T06:41:21.311Z,996.72
2017-05-10T06:42:31.662Z,996.72
2017-05-10T06:43:41.692Z,996.7
2017-05-10T06:44:51.431Z,996.69
2017-05-10T06:46:01.867Z,996.68
2017-05-10T06:47:12.250Z,996.68
2017-05-10T06:48:22.593Z,996.63
2017-05-10T06:49:32.946Z,996.63
2017-05-10T06:50:43.293Z,996.66
2017-05-10T06:51:53.649Z,996.68
2017-05-10T06:53:03.988Z,996.65
2017-05-10T06:54:14.344Z,996.67
2017-05-10T06:55:24.720Z,996.66
2017-05-10T06:56:34.763Z,996.66
2017-05-10T06:57:44.518Z,996.64
2017-05-10T06:58:54.875Z,996.62
2017-05-10T07:06:26.305Z,996.6
2017-05-10T07:07:36.655Z,996.6
2017-05-10T07:08:47.052Z,996.56
2017-05-10T07:09:57.129Z,996.52
2017-05-10T07:12:32.138Z,996.57
2017-05-10T07:13:42.177Z,996.55
2017-05-10T07:15:11.880Z,996.55
2017-05-10T07:16:22.216Z,996.5
2017-05-10T07:17:32.257Z,996.51
2017-05-10T07:25:03.649Z,996.47
2017-05-10T07:26:13.694Z,996.44
2017-05-10T07:32:28.587Z,996.46
2017-05-10T07:33:38.995Z,996.46
2017-05-10T07:34:49.368Z,996.39
2017-05-10T07:35:59.711Z,996.42
2017-05-10T07:37:10.072Z,996.39
2017-05-10T07:38:20.438Z,996.43
2017-05-10T07:39:30.788Z,996.42
2017-05-10T07:40:41.148Z,996.43
2017-05-10T07:41:51.499Z,996.41
2017-05-10T07:43:01.851Z,996.39
2017-05-10T07:44:11.888Z,996.33
2017-05-10T07:45:22.256Z,996.32
2017-05-10T07:46:32.631Z,996.28
2017-05-10T07:47:42.675Z,996.33
2017-05-10T07:48:53.061Z,996.31
2017-05-10T07:50:03.135Z,996.27
2017-05-10T07:51:13.174Z,996.27
2017-05-10T07:52:23.527Z,996.28
2017-05-10T07:53:33.905Z,996.24
2017-05-10T07:54:44.255Z,996.23
2017-05-10T07:55:54.620Z,996.19
2017-05-10T07:57:04.661Z,996.19
2017-05-10T07:58:14.726Z,996.2
2017-05-10T07:59:25.100Z,996.15
2017-05-10T08:00:35.456Z,996.16
2017-05-10T08:01:45.830Z,996.13
2017-05-10T08:02:55.564Z,996.13
2017-05-10T08:04:05.928Z,996.15
2017-05-10T08:05:16.292Z,996.15
2017-05-10T08:06:26.641Z,996.1
2017-05-10T08:07:36.686Z,996.1
2017-05-10T08:08:46.444Z,996.13
2017-05-10T08:09:56.820Z,996.08
2017-05-10T08:11:07.183Z,996.08
2017-05-10T08:12:17.273Z,996.06
2017-05-10T08:13:27.325Z,996.05
2017-05-10T08:14:37.678Z,996.07
2017-05-10T08:15:47.408Z,996.07
2017-05-10T08:16:57.756Z,996.06
2017-05-10T08:18:07.799Z,996.07
2017-05-10T08:19:17.921Z,996.05
2017-05-10T08:20:27.967Z,996.04
2017-05-10T08:21:38.309Z,996.04
2017-05-10T08:22:48.038Z,996.09
2017-05-10T08:23:57.469Z,996.1
2017-05-10T08:25:07.518Z,996.08
2017-05-10T08:26:16.920Z,996.1
2017-05-10T08:27:27.286Z,996.12
2017-05-10T08:28:37.007Z,996.09
2017-05-10T08:29:47.362Z,996.1
2017-05-10T08:30:57.772Z,996.09
2017-05-10T08:32:08.120Z,996.08
2017-05-10T08:33:18.174Z,996.08
2017-05-10T08:34:28.583Z,996.05
2017-05-10T08:35:38.949Z,996.09
2017-05-10T08:36:49.315Z,996.04
2017-05-10T08:37:59.685Z,996.03
2017-05-10T08:39:10.057Z,996.02
2017-05-10T08:40:20.421Z,995.96
2017-05-10T08:41:30.453Z,996
2017-05-10T08:42:40.814Z,995.94
2017-05-10T08:43:51.229Z,995.93
2017-05-10T08:45:01.591Z,995.87
2017-05-10T08:46:11.953Z,995.86
2017-05-10T08:47:22.309Z,995.83
2017-05-10T08:48:32.707Z,995.85
2017-05-10T08:49:42.436Z,995.8
2017-05-10T08:50:52.812Z,995.77
2017-05-10T08:52:02.857Z,995.8
2017-05-10T08:53:13.257Z,995.79
2017-05-10T08:54:23.042Z,995.78
2017-05-10T08:55:33.087Z,995.73
2017-05-10T08:56:43.421Z,995.69
2017-05-10T08:57:53.141Z,995.71
2017-05-10T08:59:03.179Z,995.69
2017-05-10T09:00:13.617Z,995.73
2017-05-10T09:01:23.976Z,995.72
2017-05-10T09:02:34.003Z,995.71
2017-05-10T09:03:44.360Z,995.78
2017-05-10T09:04:54.394Z,995.75
2017-05-10T09:06:04.475Z,995.72
2017-05-10T09:07:14.520Z,995.69
2017-05-10T09:08:24.868Z,995.64
2017-05-10T09:09:35.259Z,995.67
2017-05-10T09:10:45.633Z,995.66
2017-05-10T09:11:56.277Z,995.64
2017-05-10T09:13:06.634Z,995.59
2017-05-10T09:14:17.016Z,995.57
2017-05-10T09:15:27.056Z,995.58
2017-05-10T09:16:37.125Z,995.56
2017-05-10T09:17:47.491Z,995.58
2017-05-10T09:18:57.524Z,995.6
2017-05-10T09:20:07.579Z,995.61
2017-05-10T09:21:17.920Z,995.59
2017-05-10T09:22:27.963Z,995.6
2017-05-10T09:23:38.355Z,995.61
2017-05-10T09:24:48.763Z,995.59
2017-05-10T09:25:59.131Z,995.54
2017-05-10T09:27:09.164Z,995.5
2017-05-10T09:28:19.204Z,995.48
2017-05-10T09:29:29.559Z,995.47
2017-05-10T09:30:39.907Z,995.49
2017-05-10T09:31:50.282Z,995.46
2017-05-10T09:33:00.665Z,995.41
2017-05-10T09:34:10.774Z,995.38
2017-05-10T09:35:21.120Z,995.39
2017-05-10T09:36:31.203Z,995.38
2017-05-10T09:37:41.547Z,995.33
2017-05-10T09:38:51.602Z,995.33
2017-05-10T09:40:01.957Z,995.44
2017-05-10T09:41:12.343Z,995.4
2017-05-10T09:42:22.693Z,995.42
2017-05-10T09:43:32.482Z,995.41
2017-05-10T09:44:42.557Z,995.38
2017-05-10T09:45:52.910Z,995.38
2017-05-10T09:47:03.254Z,995.33
2017-05-10T09:48:13.604Z,995.33
2017-05-10T09:49:23.961Z,995.28
2017-05-10T09:50:34.325Z,995.34
2017-05-10T09:51:44.688Z,995.3
2017-05-10T09:52:55.095Z,995.31
2017-05-10T09:54:05.480Z,995.23
2017-05-10T09:55:15.830Z,995.24
2017-05-10T09:56:25.862Z,995.27
2017-05-10T09:57:35.922Z,995.25
2017-05-10T09:58:46.337Z,995.3
2017-05-10T09:59:56.753Z,995.31
2017-05-10T10:01:07.116Z,995.27
2017-05-10T10:02:17.470Z,995.26
2017-05-10T10:03:27.827Z,995.26
2017-05-10T10:04:38.175Z,995.24
2017-05-10T10:05:47.597Z,995.2
2017-05-10T10:06:57.951Z,995.17
2017-05-10T10:08:08.355Z,995.18
2017-05-10T10:09:18.417Z,995.19
2017-05-10T10:10:28.822Z,995.17
2017-05-10T10:11:39.210Z,995.13
2017-05-10T10:12:49.268Z,995.11
2017-05-10T10:13:59.648Z,995.08
2017-05-10T10:15:10.004Z,995.08
2017-05-10T10:16:20.373Z,995.07
2017-05-10T10:17:30.725Z,995.09
2017-05-10T10:18:41.068Z,995.05
2017-05-10T10:19:51.433Z,995.08
2017-05-10T10:21:01.842Z,994.97
2017-05-10T10:22:11.883Z,995.01
2017-05-10T10:23:22.279Z,994.94
2017-05-10T10:24:32.677Z,994.95
2017-05-10T10:25:43.042Z,994.92
2017-05-10T10:26:53.081Z,994.86
2017-05-10T10:28:03.471Z,994.96
2017-05-10T10:29:13.202Z,994.97
2017-05-10T10:30:23.545Z,994.94
2017-05-10T10:31:33.943Z,994.99
2017-05-10T10:32:44.378Z,994.94
2017-05-10T10:33:54.423Z,994.97
2017-05-10T10:35:04.780Z,994.93
2017-05-10T10:36:14.867Z,994.92
2017-05-10T10:37:25.230Z,994.93
2017-05-10T10:38:34.957Z,994.87
2017-05-10T10:39:45.001Z,994.93
2017-05-10T10:40:55.389Z,994.88
2017-05-10T10:42:05.818Z,994.81
2017-05-10T10:43:15.869Z,994.88
2017-05-10T10:44:26.229Z,994.86
2017-05-10T10:45:36.630Z,994.85
2017-05-10T10:46:47.036Z,994.82
2017-05-10T10:47:57.400Z,994.76
2017-05-10T10:49:07.808Z,994.77
2017-05-10T10:50:18.170Z,994.9
2017-05-10T10:51:28.526Z,994.88
2017-05-10T10:52:38.581Z,994.89
2017-05-10T10:53:48.949Z,994.86
2017-05-10T10:54:59.366Z,994.81
2017-05-10T10:56:09.417Z,994.82
2017-05-10T10:57:19.789Z,994.81
2017-05-10T10:58:30.149Z,994.83
2017-05-10T10:59:40.186Z,994.75
2017-05-10T11:00:50.523Z,994.72
2017-05-10T11:02:00.241Z,994.71
2017-05-10T11:03:10.602Z,994.68
2017-05-10T11:04:20.665Z,994.66
2017-05-10T11:05:30.718Z,994.58
2017-05-10T11:06:41.073Z,994.6
2017-05-10T11:07:51.439Z,994.56
2017-05-10T11:09:01.911Z,994.57
2017-05-10T11:10:12.281Z,994.52
2017-05-10T11:11:22.636Z,994.54
2017-05-10T11:12:33.062Z,994.53
2017-05-10T11:13:43.679Z,994.51
2017-05-10T11:14:54.100Z,994.5
2017-05-10T11:16:04.481Z,994.46
2017-05-10T11:17:14.527Z,994.46
2017-05-10T11:18:24.561Z,994.46
2017-05-10T11:19:34.922Z,994.45
2017-05-10T11:20:45.258Z,994.48
2017-05-10T11:21:55.296Z,994.47
2017-05-10T11:23:05.664Z,994.45
2017-05-10T11:24:16.056Z,994.42
2017-05-10T11:25:26.402Z,994.41
2017-05-10T11:26:36.777Z,994.37
2017-05-10T11:27:47.138Z,994.38
2017-05-10T11:28:57.495Z,994.4
2017-05-10T11:30:07.630Z,994.36
2017-05-10T11:31:17.979Z,994.34
2017-05-10T11:32:28.392Z,994.37
2017-05-10T11:33:38.986Z,994.34
2017-05-10T11:34:49.383Z,994.36
2017-05-10T11:35:59.760Z,994.38
2017-05-10T11:37:10.122Z,994.35
2017-05-10T11:38:20.478Z,994.25
2017-05-10T11:39:30.857Z,994.25
2017-05-10T11:40:41.242Z,994.31
2017-05-10T11:41:51.049Z,994.28
2017-05-10T11:43:01.155Z,994.37
2017-05-10T11:44:11.192Z,994.31
2017-05-10T11:45:21.563Z,994.23
2017-05-10T11:46:31.626Z,994.26
2017-05-10T11:47:41.983Z,994.22
2017-05-10T11:48:52.422Z,994.18
2017-05-10T11:50:02.776Z,994.19
2017-05-10T11:51:13.173Z,994.22
2017-05-10T11:52:23.519Z,994.23
2017-05-10T11:53:33.911Z,994.16
2017-05-10T11:54:44.259Z,994.1
2017-05-10T11:55:55.029Z,994.13
2017-05-10T11:57:05.119Z,994.16
2017-05-10T11:58:15.510Z,994.12
2017-05-10T11:59:25.874Z,994.12
2017-05-10T12:00:35.666Z,994.16
2017-05-10T12:01:46.031Z,994.17
2017-05-10T12:02:58.280Z,994.19
2017-05-10T12:04:09.733Z,994.17
2017-05-10T12:05:19.774Z,994.17
2017-05-10T12:06:30.375Z,994.19
2017-05-10T12:07:40.404Z,994.12
2017-05-10T12:08:50.447Z,994.14
2017-05-10T12:10:00.853Z,994.11
2017-05-10T12:11:11.203Z,994.07
2017-05-10T12:12:21.002Z,994.04
2017-05-10T12:13:31.098Z,994.01
2017-05-10T12:14:41.500Z,994.03
2017-05-10T12:15:51.915Z,994.06
2017-05-10T12:17:02.010Z,994.03
2017-05-10T12:18:12.385Z,994.02
2017-05-10T12:19:22.736Z,994.04
2017-05-10T12:20:32.476Z,994
2017-05-10T12:21:42.824Z,994
2017-05-10T12:22:52.898Z,994.05
2017-05-10T12:24:03.258Z,993.97
2017-05-10T12:25:13.323Z,993.93
2017-05-10T12:26:23.694Z,993.94
2017-05-10T12:27:34.058Z,993.89
2017-05-10T12:28:44.407Z,993.9
2017-05-10T12:29:54.772Z,993.86
2017-05-10T12:31:04.547Z,993.84
2017-05-10T12:32:14.620Z,993.8
2017-05-10T12:33:25.038Z,993.76
2017-05-10T12:34:35.418Z,993.72
2017-05-10T12:35:46.036Z,993.69
2017-05-10T12:36:56.398Z,993.68
2017-05-10T12:38:06.766Z,993.6
2017-05-10T12:39:17.173Z,993.63
2017-05-10T12:40:26.892Z,993.6
2017-05-10T12:41:36.928Z,993.64
2017-05-10T12:42:46.977Z,993.67
2017-05-10T12:43:57.351Z,993.64
2017-05-10T12:45:07.697Z,993.69
2017-05-10T12:46:18.055Z,993.7
2017-05-10T12:47:28.430Z,993.67
2017-05-10T12:48:38.783Z,993.62
2017-05-10T12:49:49.129Z,993.66
2017-05-10T12:50:59.486Z,993.57
2017-05-10T12:52:09.842Z,993.49
2017-05-10T12:53:20.219Z,993.47
2017-05-10T12:54:30.651Z,993.45
2017-05-10T12:55:40.733Z,993.47
2017-05-10T12:56:50.779Z,993.57
2017-05-10T12:58:01.149Z,993.5
2017-05-10T12:59:11.259Z,993.47
2017-05-10T13:00:21.622Z,993.48
2017-05-10T13:01:32.217Z,993.42
2017-05-10T13:02:42.279Z,993.36
2017-05-10T13:03:52.311Z,993.33
2017-05-10T13:05:02.353Z,993.35
2017-05-10T13:06:12.769Z,993.4
2017-05-10T13:07:22.825Z,993.47
2017-05-10T13:08:33.181Z,993.42
2017-05-10T13:09:43.217Z,993.37
2017-05-10T13:10:53.617Z,993.31
2017-05-10T13:12:03.719Z,993.28
2017-05-10T13:13:13.779Z,993.26
2017-05-10T13:14:24.145Z,993.26
2017-05-10T13:15:33.908Z,993.26
2017-05-10T13:16:44.304Z,993.25
2017-05-10T13:17:54.722Z,993.28
2017-05-10T13:19:05.100Z,993.28
2017-05-10T13:20:15.492Z,993.23
2017-05-10T13:21:25.557Z,993.25
2017-05-10T13:22:35.903Z,993.28
2017-05-10T13:23:46.250Z,993.28
2017-05-10T13:24:56.642Z,993.25
2017-05-10T13:26:06.688Z,993.25
2017-05-10T13:27:17.032Z,993.24
2017-05-10T13:28:27.393Z,993.2
2017-05-10T13:29:37.763Z,993.18
2017-05-10T13:30:48.122Z,993.16
2017-05-10T13:31:58.476Z,993.14
2017-05-10T13:33:08.842Z,993.1
2017-05-10T13:34:19.185Z,993.14
2017-05-10T13:35:29.237Z,993.15
2017-05-10T13:36:38.980Z,993.11
2017-05-10T13:37:49.333Z,993.1
2017-05-10T13:38:59.695Z,993.12
2017-05-10T13:40:09.746Z,993.08
2017-05-10T13:41:20.133Z,993
2017-05-10T13:42:30.174Z,993
2017-05-10T13:43:40.605Z,993.02
2017-05-10T13:44:50.959Z,993.01
2017-05-10T13:46:01.318Z,992.99
2017-05-10T13:47:11.679Z,992.98
2017-05-10T13:48:21.089Z,992.96
2017-05-10T13:49:31.473Z,992.94
2017-05-10T13:50:41.516Z,992.96
2017-05-10T13:51:51.856Z,992.94
2017-05-10T13:53:01.628Z,993
2017-05-10T13:54:11.686Z,993.03
2017-05-10T13:55:21.742Z,993.02
2017-05-10T13:56:31.485Z,992.98
2017-05-10T13:57:41.864Z,993.01
2017-05-10T13:58:52.223Z,992.96
2017-05-10T14:00:01.644Z,993.02
2017-05-10T14:01:12.007Z,993
2017-05-10T14:02:22.051Z,992.99
2017-05-10T14:03:32.421Z,992.97
2017-05-10T14:04:42.782Z,992.99
2017-05-10T14:05:53.181Z,992.98
2017-05-10T14:07:03.573Z,992.94
2017-05-10T14:08:13.605Z,992.95
2017-05-10T14:09:23.972Z,992.92
2017-05-10T14:10:34.329Z,992.92
2017-05-10T14:11:44.703Z,992.8
2017-05-10T14:12:54.759Z,992.82
2017-05-10T14:14:05.181Z,992.79
2017-05-10T14:15:15.470Z,992.81
2017-05-10T14:16:25.531Z,992.76
2017-05-10T14:17:35.566Z,992.79
2017-05-10T14:18:45.940Z,992.73
2017-05-10T14:19:56.305Z,992.75
2017-05-10T14:21:06.716Z,992.77
2017-05-10T14:22:17.141Z,992.75
2017-05-10T14:23:27.196Z,992.73
2017-05-10T14:24:37.244Z,992.66
2017-05-10T14:25:47.639Z,992.65
2017-05-10T14:26:57.732Z,992.66
2017-05-10T14:28:07.780Z,992.66
2017-05-10T14:29:18.208Z,992.64
2017-05-10T14:30:28.263Z,992.6
2017-05-10T14:31:38.351Z,992.61
2017-05-10T14:32:48.739Z,992.65
2017-05-10T14:33:59.143Z,992.65
2017-05-10T14:35:09.215Z,992.6
2017-05-10T14:36:18.976Z,992.61
2017-05-10T14:37:29.024Z,992.67
2017-05-10T14:38:39.402Z,992.64
2017-05-10T14:39:49.759Z,992.58
2017-05-10T14:41:00.117Z,992.58
2017-05-10T14:42:10.512Z,992.56
2017-05-10T14:43:20.561Z,992.55
2017-05-10T14:44:30.945Z,992.52
2017-05-10T14:45:41.049Z,992.51
2017-05-10T14:46:51.409Z,992.5
2017-05-10T14:48:01.129Z,992.51
2017-05-10T14:49:11.237Z,992.46
2017-05-10T14:50:21.283Z,992.44
2017-05-10T14:51:31.681Z,992.42
2017-05-10T14:52:42.028Z,992.39
2017-05-10T14:53:52.383Z,992.37
2017-05-10T14:55:02.780Z,992.38
2017-05-10T14:56:13.146Z,992.37
2017-05-10T14:57:23.496Z,992.31
2017-05-10T14:58:33.849Z,992.29
2017-05-10T14:59:43.919Z,992.33
2017-05-10T15:00:54.276Z,992.33
2017-05-10T15:02:04.651Z,992.29
2017-05-10T15:03:14.696Z,992.26
2017-05-10T15:04:24.794Z,992.21
2017-05-10T15:05:35.166Z,992.26
2017-05-10T15:06:45.212Z,992.27
2017-05-10T15:07:55.560Z,992.28
2017-05-10T15:09:05.666Z,992.24
2017-05-10T15:10:15.402Z,992.22
2017-05-10T15:11:25.130Z,992.25
2017-05-10T15:12:35.472Z,992.24
2017-05-10T15:13:45.824Z,992.26
2017-05-10T15:14:56.184Z,992.25
2017-05-10T15:16:06.538Z,992.18
2017-05-10T15:17:16.612Z,992.22
2017-05-10T15:18:26.660Z,992.23
2017-05-10T15:19:37.057Z,992.23
2017-05-10T15:20:46.822Z,992.25
2017-05-10T15:21:57.201Z,992.21
2017-05-10T15:23:07.553Z,992.22
2017-05-10T15:24:17.903Z,992.21
2017-05-10T15:25:27.961Z,992.19
2017-05-10T15:26:38.367Z,992.16
2017-05-10T15:27:48.414Z,992.13
2017-05-10T15:28:58.761Z,992.09